Time;durP1;ratioP1;P1;durP2;ratioP2;P2;SDS_P1;SDS_P2;PMS_P1;PMS_P2;Temp;Humidity;BMP_temperature;BMP_pressure;BME280_temperature;BME280_humidity;BME280_pressure;Samples;Min_cycle;Max_cycle;Signal;HPM_P1;HPM_P2
2022/12/13 00:00:07;;;;;;;43.85;23.77;;;;;;;;;;5044053;28;20041;-71
2022/12/13 00:02:33;;;;;;;45.70;24.23;;;;;;;;;;5043554;28;20044;-73
2022/12/13 00:04:59;;;;;;;46.58;24.67;;;;;;;;;;5043675;28;20127;-74
2022/12/13 00:07:25;;;;;;;44.20;23.27;;;;;;;;;;5043892;28;20045;-74
2022/12/13 00:09:51;;;;;;;38.17;21.83;;;;;;;;;;5042449;28;20075;-72
2022/12/13 00:12:17;;;;;;;41.20;22.63;;;;;;;;;;5043990;28;20053;-74
2022/12/13 00:14:43;;;;;;;36.30;20.55;;;;;;;;;;5046149;28;20041;-74
2022/12/13 00:17:09;;;;;;;45.95;24.33;;;;;;;;;;5038851;28;20049;-74
2022/12/13 00:19:35;;;;;;;26.38;17.42;;;;;;;;;;5043447;28;20099;-74
2022/12/13 00:22:01;;;;;;;22.92;15.77;;;;;;;;;;5045291;28;20045;-71
2022/12/13 00:24:27;;;;;;;34.83;20.48;;;;;;;;;;5036159;28;20491;-74
2022/12/13 00:26:54;;;;;;;35.83;21.10;;;;;;;;;;5031761;28;20094;-74
2022/12/13 00:29:20;;;;;;;41.88;22.52;;;;;;;;;;5040225;28;20044;-73
2022/12/13 00:31:46;;;;;;;45.63;24.70;;;;;;;;;;5042249;28;20045;-72
2022/12/13 00:34:12;;;;;;;41.53;24.33;;;;;;;;;;5043281;28;20059;-71
2022/12/13 00:36:38;;;;;;;48.45;28.20;;;;;;;;;;5027750;28;20045;-73
2022/12/13 00:39:04;;;;;;;49.63;27.25;;;;;;;;;;5041890;28;20487;-74
2022/12/13 00:41:32;;;;;;;47.67;25.33;;;;;;;;;;5042896;28;20064;-73
2022/12/13 00:43:59;;;;;;;56.97;29.70;;;;;;;;;;5026909;28;20693;-74
2022/12/13 00:46:25;;;;;;;56.47;29.17;;;;;;;;;;5041656;28;20068;-72
2022/12/13 00:48:54;;;;;;;50.95;27.65;;;;;;;;;;5040046;28;20508;-74
2022/12/13 00:51:21;;;;;;;57.85;26.67;;;;;;;;;;5043323;28;20045;-74
2022/12/13 00:53:47;;;;;;;47.60;25.52;;;;;;;;;;5044576;28;20072;-71
2022/12/13 00:56:14;;;;;;;51.53;26.60;;;;;;;;;;5040991;28;20096;-73
2022/12/13 00:58:41;;;;;;;51.33;26.00;;;;;;;;;;5042760;28;20048;-74
2022/12/13 01:01:08;;;;;;;52.33;27.88;;;;;;;;;;5026946;28;20131;-73
2022/12/13 01:03:34;;;;;;;54.25;27.20;;;;;;;;;;5042772;28;20075;-71
2022/12/13 01:06:00;;;;;;;49.45;26.20;;;;;;;;;;5044282;28;20492;-71
2022/12/13 01:08:27;;;;;;;46.75;25.30;;;;;;;;;;5041073;28;20056;-73
2022/12/13 01:10:53;;;;;;;50.67;25.52;;;;;;;;;;5045327;28;20052;-75
2022/12/13 01:13:19;;;;;;;52.15;27.13;;;;;;;;;;5045458;28;20065;-72
2022/12/13 01:15:46;;;;;;;47.88;26.27;;;;;;;;;;5043501;28;20068;-72
2022/12/13 01:18:17;;;;;;;50.08;27.02;;;;;;;;;;5024628;28;20045;-73
2022/12/13 01:20:43;;;;;;;52.08;26.60;;;;;;;;;;5043029;28;20041;-71
2022/12/13 01:23:09;;;;;;;50.75;26.13;;;;;;;;;;5044543;28;20044;-71
2022/12/13 01:25:36;;;;;;;49.22;25.90;;;;;;;;;;5040992;28;20056;-70
2022/12/13 01:28:03;;;;;;;44.15;26.38;;;;;;;;;;5043695;28;20060;-71
2022/12/13 01:30:28;;;;;;;52.60;27.20;;;;;;;;;;5041966;28;20056;-74
2022/12/13 01:32:54;;;;;;;46.15;25.05;;;;;;;;;;5026759;28;20041;-74
2022/12/13 01:35:20;;;;;;;49.65;25.73;;;;;;;;;;5044000;28;20044;-74
2022/12/13 01:37:46;;;;;;;48.13;25.83;;;;;;;;;;5043154;28;20110;-73
2022/12/13 01:40:12;;;;;;;48.58;26.00;;;;;;;;;;5041478;28;20952;-72
2022/12/13 01:42:39;;;;;;;47.03;23.88;;;;;;;;;;5040447;28;20132;-73
2022/12/13 01:45:12;;;;;;;46.13;25.33;;;;;;;;;;5039850;28;20048;-74
2022/12/13 01:47:44;;;;;;;45.42;25.05;;;;;;;;;;5041539;28;20056;-75
2022/12/13 01:50:14;;;;;;;50.53;26.27;;;;;;;;;;5042769;28;20415;-74
2022/12/13 01:52:41;;;;;;;47.78;25.27;;;;;;;;;;5043189;28;20373;-74
2022/12/13 01:55:07;;;;;;;44.15;25.48;;;;;;;;;;5042680;28;20456;-73
2022/12/13 01:57:35;;;;;;;48.05;25.42;;;;;;;;;;5043548;28;20657;-74
2022/12/13 02:00:02;;;;;;;51.70;26.67;;;;;;;;;;5026292;28;20122;-75
2022/12/13 02:02:28;;;;;;;47.80;26.23;;;;;;;;;;5040092;28;20037;-74
2022/12/13 02:04:55;;;;;;;48.38;24.27;;;;;;;;;;5041277;28;20048;-71
2022/12/13 02:07:25;;;;;;;40.30;23.02;;;;;;;;;;5042861;28;20047;-73
2022/12/13 02:09:52;;;;;;;35.28;21.48;;;;;;;;;;5042870;28;20399;-74
2022/12/13 02:12:18;;;;;;;39.67;21.95;;;;;;;;;;5042594;28;20389;-75
2022/12/13 02:14:44;;;;;;;45.53;21.67;;;;;;;;;;5040162;28;20119;-71
2022/12/13 02:17:17;;;;;;;40.72;21.85;;;;;;;;;;5041036;28;20082;-74
2022/12/13 02:19:43;;;;;;;;;;;;;;;;;;5045332;28;20138;-74
2022/12/13 02:22:15;;;;;;;36.85;20.30;;;;;;;;;;5039707;28;20016;-72
2022/12/13 02:24:53;;;;;;;41.17;22.25;;;;;;;;;;5042561;28;20060;-74
2022/12/13 02:27:33;;;;;;;41.17;22.33;;;;;;;;;;5047508;28;20041;-74
2022/12/13 02:30:09;;;;;;;38.85;21.38;;;;;;;;;;5044332;28;20053;-74
2022/12/13 02:32:41;;;;;;;40.35;21.75;;;;;;;;;;5039336;28;20037;-74
2022/12/13 02:35:09;;;;;;;44.83;23.38;;;;;;;;;;5043231;28;20675;-74
2022/12/13 02:37:41;;;;;;;42.47;22.25;;;;;;;;;;5043293;28;20494;-74
2022/12/13 02:40:16;;;;;;;33.40;17.55;;;;;;;;;;5041912;28;20376;-73
2022/12/13 02:42:52;;;;;;;39.88;21.17;;;;;;;;;;5040229;28;20045;-73
2022/12/13 02:45:22;;;;;;;40.47;22.08;;;;;;;;;;5038626;28;20059;-74
2022/12/13 02:47:51;;;;;;;45.10;23.00;;;;;;;;;;5039772;28;20075;-73
2022/12/13 02:50:20;;;;;;;36.88;21.63;;;;;;;;;;5040051;28;20136;-74
2022/12/13 02:52:46;;;;;;;40.92;22.67;;;;;;;;;;5040972;28;20044;-74
2022/12/13 02:55:14;;;;;;;42.60;22.45;;;;;;;;;;5045041;28;20052;-74
2022/12/13 02:57:41;;;;;;;38.75;21.38;;;;;;;;;;5043647;28;20044;-74
2022/12/13 03:00:07;;;;;;;37.25;21.10;;;;;;;;;;5043677;28;20048;-71
2022/12/13 03:02:52;;;;;;;38.10;20.17;;;;;;;;;;5041852;28;20127;-73
2022/12/13 03:08:32;;;;;;;37.95;20.77;;;;;;;;;;5044462;28;20037;-74
2022/12/13 03:11:01;;;;;;;40.72;21.75;;;;;;;;;;4989163;28;20088;-74
2022/12/13 03:13:36;;;;;;;39.65;22.08;;;;;;;;;;5043853;28;20048;-75
2022/12/13 03:16:13;;;;;;;40.15;22.15;;;;;;;;;;5028346;28;20073;-74
2022/12/13 03:18:39;;;;;;;42.30;22.73;;;;;;;;;;5041045;28;20625;-72
2022/12/13 03:21:07;;;;;;;41.25;22.67;;;;;;;;;;5029237;28;20040;-70
2022/12/13 03:23:34;;;;;;;38.70;22.35;;;;;;;;;;5044262;28;20037;-73
2022/12/13 03:26:06;;;;;;;41.25;21.85;;;;;;;;;;5039957;28;20087;-73
2022/12/13 03:28:32;;;;;;;37.55;22.08;;;;;;;;;;5044661;28;20059;-74
2022/12/13 03:30:58;;;;;;;43.25;23.60;;;;;;;;;;5044025;28;20124;-72
2022/12/13 03:33:24;;;;;;;41.13;22.67;;;;;;;;;;5045333;28;20118;-73
2022/12/13 03:35:50;;;;;;;40.75;22.23;;;;;;;;;;5045625;28;20451;-72
2022/12/13 03:38:17;;;;;;;43.08;22.92;;;;;;;;;;5044427;28;20047;-72
2022/12/13 03:40:43;;;;;;;43.47;23.13;;;;;;;;;;5046206;28;20083;-73
2022/12/13 03:43:09;;;;;;;46.83;23.60;;;;;;;;;;5042779;28;20037;-74
2022/12/13 03:45:35;;;;;;;46.10;24.13;;;;;;;;;;5042913;28;20037;-74
2022/12/13 03:48:01;;;;;;;43.90;22.33;;;;;;;;;;5038894;28;20434;-74
2022/12/13 03:50:27;;;;;;;40.60;21.42;;;;;;;;;;5043655;28;20045;-72
2022/12/13 03:53:00;;;;;;;38.45;21.50;;;;;;;;;;5044619;28;20060;-74
2022/12/13 03:55:26;;;;;;;;;;;;;;;;;;5043150;28;20045;-74
2022/12/13 03:57:52;;;;;;;46.95;21.90;;;;;;;;;;5047741;28;19947;-73
2022/12/13 04:00:18;;;;;;;48.22;23.45;;;;;;;;;;5043821;28;20049;-74
2022/12/13 04:02:44;;;;;;;40.05;22.35;;;;;;;;;;5043538;28;20045;-74
2022/12/13 04:05:10;;;;;;;38.50;22.25;;;;;;;;;;5043293;28;20131;-74
2022/12/13 04:07:36;;;;;;;43.90;23.25;;;;;;;;;;5043884;28;20110;-74
2022/12/13 04:10:03;;;;;;;41.53;23.25;;;;;;;;;;5043572;28;20084;-73
2022/12/13 04:15:14;;;;;;;42.03;23.77;;;;;;;;;;5053416;28;20143;-74
2022/12/13 04:17:40;;;;;;;44.20;22.63;;;;;;;;;;5028545;28;20128;-74
2022/12/13 04:20:06;;;;;;;39.88;23.23;;;;;;;;;;5044085;28;20143;-72
2022/12/13 04:22:32;;;;;;;41.63;23.13;;;;;;;;;;5028419;28;20053;-73
2022/12/13 04:24:58;;;;;;;42.67;24.23;;;;;;;;;;5043377;28;20147;-73
2022/12/13 04:27:24;;;;;;;41.08;23.15;;;;;;;;;;5043404;28;20462;-75
2022/12/13 04:29:50;;;;;;;45.97;23.42;;;;;;;;;;5043337;28;20056;-75
2022/12/13 04:32:16;;;;;;;39.17;21.55;;;;;;;;;;5045726;28;20049;-73
2022/12/13 04:34:42;;;;;;;39.25;21.10;;;;;;;;;;5043844;28;20072;-75
2022/12/13 04:37:08;;;;;;;41.85;21.98;;;;;;;;;;5027671;28;20445;-72
2022/12/13 04:39:34;;;;;;;36.83;21.48;;;;;;;;;;5042789;28;20064;-75
2022/12/13 04:42:00;;;;;;;39.30;22.23;;;;;;;;;;5044426;28;20079;-74
2022/12/13 04:44:26;;;;;;;39.67;22.15;;;;;;;;;;5044134;28;20407;-74
2022/12/13 04:46:52;;;;;;;36.65;20.23;;;;;;;;;;5043639;28;20056;-74
2022/12/13 04:49:18;;;;;;;41.03;21.55;;;;;;;;;;5047488;28;20045;-73
2022/12/13 04:51:44;;;;;;;44.47;21.58;;;;;;;;;;5048393;28;20127;-73
2022/12/13 04:54:10;;;;;;;36.08;20.52;;;;;;;;;;5046599;28;20504;-74
2022/12/13 04:56:37;;;;;;;40.58;21.00;;;;;;;;;;5031855;28;20032;-74
2022/12/13 04:59:03;;;;;;;36.40;21.88;;;;;;;;;;5046541;28;20453;-73
2022/12/13 05:01:29;;;;;;;37.92;20.88;;;;;;;;;;5046979;28;20711;-74
2022/12/13 05:03:55;;;;;;;37.67;20.42;;;;;;;;;;5044313;28;20041;-73
2022/12/13 05:06:21;;;;;;;42.20;20.60;;;;;;;;;;5047131;28;20122;-71
2022/12/13 05:08:47;;;;;;;36.45;20.67;;;;;;;;;;5045610;28;20128;-76
2022/12/13 05:11:13;;;;;;;34.63;19.17;;;;;;;;;;5047317;28;20136;-74
2022/12/13 05:13:39;;;;;;;33.70;19.60;;;;;;;;;;5046146;28;20075;-74
2022/12/13 05:16:06;;;;;;;38.10;21.23;;;;;;;;;;5028706;28;20048;-73
2022/12/13 05:18:33;;;;;;;38.25;21.73;;;;;;;;;;5047122;28;20045;-74
2022/12/13 05:21:06;;;;;;;42.60;23.40;;;;;;;;;;5030881;28;20040;-75
2022/12/13 05:23:33;;;;;;;42.40;23.15;;;;;;;;;;5044185;28;20041;-75
2022/12/13 05:25:59;;;;;;;43.97;23.63;;;;;;;;;;5044387;28;20049;-75
2022/12/13 05:28:27;;;;;;;41.10;23.30;;;;;;;;;;5046525;28;20087;-74
2022/12/13 05:30:53;;;;;;;46.40;23.45;;;;;;;;;;5046791;28;20048;-75
2022/12/13 05:33:19;;;;;;;49.90;24.88;;;;;;;;;;5042750;28;20075;-74
2022/12/13 05:35:45;;;;;;;54.03;26.85;;;;;;;;;;5046438;28;20537;-75
2022/12/13 05:38:11;;;;;;;50.80;27.88;;;;;;;;;;5047270;28;20041;-75
2022/12/13 05:40:38;;;;;;;56.08;26.10;;;;;;;;;;5049397;28;20064;-75
2022/12/13 05:43:04;;;;;;;53.33;27.48;;;;;;;;;;5046712;28;20049;-73
2022/12/13 05:45:31;;;;;;;49.55;25.15;;;;;;;;;;5038282;28;20213;-75
2022/12/13 05:47:57;;;;;;;51.85;26.50;;;;;;;;;;5046680;28;20048;-75
2022/12/13 05:50:24;;;;;;;58.40;28.50;;;;;;;;;;5046340;28;20370;-75
2022/12/13 05:52:50;;;;;;;52.45;27.23;;;;;;;;;;5046836;28;20045;-75
2022/12/13 05:55:16;;;;;;;56.45;28.17;;;;;;;;;;5046977;28;20098;-75
2022/12/13 05:57:42;;;;;;;48.65;26.83;;;;;;;;;;5029630;28;20056;-75
2022/12/13 06:00:09;;;;;;;51.63;24.85;;;;;;;;;;5046555;28;20045;-74
2022/12/13 06:02:37;;;;;;;46.53;25.42;;;;;;;;;;5046477;28;20198;-74
2022/12/13 06:05:04;;;;;;;45.67;24.98;;;;;;;;;;5044083;28;20393;-74
2022/12/13 06:07:30;;;;;;;45.35;25.35;;;;;;;;;;5047334;28;20529;-75
2022/12/13 06:09:56;;;;;;;48.53;25.52;;;;;;;;;;5042846;28;20053;-75
2022/12/13 06:12:22;;;;;;;50.13;26.08;;;;;;;;;;5040856;28;20411;-71
2022/12/13 06:14:48;;;;;;;50.78;25.85;;;;;;;;;;5041357;28;20127;-73
2022/12/13 06:17:14;;;;;;;56.97;27.40;;;;;;;;;;5040694;28;20508;-75
2022/12/13 06:19:40;;;;;;;59.53;29.73;;;;;;;;;;5039383;28;20077;-74
2022/12/13 06:22:06;;;;;;;54.00;28.30;;;;;;;;;;5038468;28;20146;-75
2022/12/13 06:24:32;;;;;;;55.83;28.75;;;;;;;;;;5042345;28;20499;-74
2022/12/13 06:26:59;;;;;;;56.70;27.63;;;;;;;;;;5026847;28;20428;-73
2022/12/13 06:29:25;;;;;;;55.25;26.88;;;;;;;;;;5041268;28;20041;-75
2022/12/13 06:32:01;;;;;;;52.33;27.25;;;;;;;;;;5046623;28;20067;-73
2022/12/13 06:34:27;;;;;;;53.28;26.00;;;;;;;;;;5058137;28;20045;-72
2022/12/13 06:36:53;;;;;;;54.40;27.13;;;;;;;;;;5051757;28;20709;-69
2022/12/13 06:39:20;;;;;;;47.90;25.95;;;;;;;;;;5044667;28;20127;-74
2022/12/13 06:41:46;;;;;;;52.28;27.45;;;;;;;;;;5047146;28;20037;-72
2022/12/13 06:44:12;;;;;;;48.45;26.55;;;;;;;;;;5038009;28;20044;-69
2022/12/13 06:46:38;;;;;;;54.90;27.42;;;;;;;;;;5027775;28;20045;-72
2022/12/13 06:49:04;;;;;;;54.17;28.52;;;;;;;;;;5046682;28;20044;-72
2022/12/13 06:51:31;;;;;;;45.03;25.75;;;;;;;;;;5046601;28;20080;-71
2022/12/13 06:53:57;;;;;;;51.20;26.27;;;;;;;;;;5043180;28;20447;-74
2022/12/13 06:56:23;;;;;;;50.65;26.35;;;;;;;;;;5045959;28;20045;-74
2022/12/13 06:58:49;;;;;;;49.00;25.33;;;;;;;;;;5049434;28;20040;-74
2022/12/13 07:01:17;;;;;;;50.13;26.67;;;;;;;;;;5044872;28;20184;-74
2022/12/13 07:03:43;;;;;;;57.05;28.13;;;;;;;;;;5047036;28;20044;-72
2022/12/13 07:06:13;;;;;;;49.50;26.38;;;;;;;;;;5046179;28;20048;-75
2022/12/13 07:08:40;;;;;;;52.63;26.95;;;;;;;;;;5041723;28;20049;-72
2022/12/13 07:11:06;;;;;;;53.28;26.40;;;;;;;;;;5024842;28;20527;-73
2022/12/13 07:13:33;;;;;;;51.30;27.88;;;;;;;;;;5041605;28;20041;-72
2022/12/13 07:15:59;;;;;;;58.35;26.80;;;;;;;;;;5042111;28;20478;-71
2022/12/13 07:18:26;;;;;;;52.28;26.85;;;;;;;;;;5041703;28;20131;-72
2022/12/13 07:20:52;;;;;;;54.67;27.20;;;;;;;;;;5042479;28;20045;-73
2022/12/13 07:23:19;;;;;;;56.80;28.20;;;;;;;;;;5043126;28;20407;-74
2022/12/13 07:25:52;;;;;;;50.67;27.33;;;;;;;;;;5042718;28;20048;-74
2022/12/13 07:28:18;;;;;;;54.38;27.90;;;;;;;;;;5039866;28;20403;-71
2022/12/13 07:30:45;;;;;;;59.35;28.63;;;;;;;;;;5043565;28;20053;-71
2022/12/13 07:33:11;;;;;;;55.28;28.33;;;;;;;;;;5042423;28;20041;-72
2022/12/13 07:35:37;;;;;;;60.95;30.67;;;;;;;;;;5044328;28;20095;-70
2022/12/13 07:38:04;;;;;;;68.63;33.70;;;;;;;;;;5028898;28;20314;-72
2022/12/13 07:40:31;;;;;;;64.95;31.25;;;;;;;;;;5046827;28;20041;-71
2022/12/13 07:42:57;;;;;;;64.28;32.83;;;;;;;;;;5047502;28;20486;-72
2022/12/13 07:45:23;;;;;;;73.05;32.45;;;;;;;;;;5045205;28;20096;-72
2022/12/13 07:47:50;;;;;;;64.18;32.28;;;;;;;;;;5050287;28;20052;-71
2022/12/13 07:50:16;;;;;;;70.55;33.92;;;;;;;;;;5051590;28;20049;-72
2022/12/13 07:52:42;;;;;;;70.75;34.17;;;;;;;;;;5050855;28;20047;-72
2022/12/13 07:55:08;;;;;;;68.95;32.72;;;;;;;;;;5049546;28;20396;-72
2022/12/13 07:57:34;;;;;;;74.07;34.30;;;;;;;;;;5049757;28;20131;-71
2022/12/13 08:00:00;;;;;;;64.03;31.95;;;;;;;;;;5044288;28;20037;-71
2022/12/13 08:02:26;;;;;;;76.38;35.38;;;;;;;;;;5050242;28;20526;-71
2022/12/13 08:04:52;;;;;;;68.15;35.45;;;;;;;;;;5042501;28;20129;-72
2022/12/13 08:07:18;;;;;;;70.18;34.60;;;;;;;;;;5050390;28;20049;-72
2022/12/13 08:09:44;;;;;;;79.90;36.03;;;;;;;;;;5048569;28;20303;-72
2022/12/13 08:12:10;;;;;;;70.13;35.15;;;;;;;;;;5043635;28;20106;-73
2022/12/13 08:14:36;;;;;;;74.28;37.53;;;;;;;;;;5047186;28;20056;-73
2022/12/13 08:17:02;;;;;;;75.75;36.10;;;;;;;;;;5044277;28;20124;-70
2022/12/13 08:19:28;;;;;;;71.82;36.13;;;;;;;;;;5045710;28;20046;-69
2022/12/13 08:21:55;;;;;;;63.28;33.95;;;;;;;;;;5051365;28;20495;-69
2022/12/13 08:24:22;;;;;;;69.13;35.45;;;;;;;;;;5053981;28;20051;-71
2022/12/13 08:26:48;;;;;;;76.72;36.35;;;;;;;;;;5032384;28;20422;-70
2022/12/13 08:29:14;;;;;;;71.35;35.75;;;;;;;;;;5045127;28;20053;-70
2022/12/13 08:31:40;;;;;;;72.50;36.47;;;;;;;;;;5046244;28;20037;-71
2022/12/13 08:34:07;;;;;;;72.95;35.03;;;;;;;;;;5045930;28;20049;-70
2022/12/13 08:36:33;;;;;;;75.25;37.25;;;;;;;;;;5047713;28;20057;-70
2022/12/13 08:39:01;;;;;;;79.95;39.05;;;;;;;;;;5046101;28;20056;-70
2022/12/13 08:41:28;;;;;;;77.80;38.28;;;;;;;;;;5040610;28;20103;-70
2022/12/13 08:43:54;;;;;;;78.93;37.17;;;;;;;;;;5021414;28;20504;-71
2022/12/13 08:46:20;;;;;;;73.15;36.25;;;;;;;;;;5048927;28;20052;-71
2022/12/13 08:48:46;;;;;;;67.88;34.13;;;;;;;;;;5044501;28;20057;-71
2022/12/13 08:51:16;;;;;;;70.38;35.97;;;;;;;;;;5046231;28;20064;-72
2022/12/13 08:53:43;;;;;;;69.97;35.28;;;;;;;;;;5026756;28;20059;-69
2022/12/13 08:56:12;;;;;;;63.35;34.22;;;;;;;;;;5050001;28;20102;-69
2022/12/13 08:58:39;;;;;;;67.55;35.17;;;;;;;;;;5048636;28;20048;-72
2022/12/13 09:01:06;;;;;;;70.18;36.15;;;;;;;;;;5041208;28;20132;-72
2022/12/13 09:03:32;;;;;;;81.85;38.35;;;;;;;;;;5031830;28;20461;-72
2022/12/13 09:06:05;;;;;;;70.00;35.78;;;;;;;;;;5048305;28;20094;-69
2022/12/13 09:08:30;;;;;;;;;;;;;;;;;;5044301;28;20041;-68
2022/12/13 09:10:58;;;;;;;68.53;38.00;;;;;;;;;;5043972;28;19939;-69
2022/12/13 09:13:24;;;;;;;70.57;38.20;;;;;;;;;;5048990;28;20099;-71
2022/12/13 09:15:50;;;;;;;73.05;37.20;;;;;;;;;;5049830;28;20415;-70
2022/12/13 09:18:15;;;;;;;77.65;38.47;;;;;;;;;;5045426;28;20040;-70
2022/12/13 09:20:41;;;;;;;73.55;38.10;;;;;;;;;;5043801;28;20621;-70
2022/12/13 09:23:08;;;;;;;65.40;36.85;;;;;;;;;;5043573;28;20083;-70
2022/12/13 09:25:34;;;;;;;74.82;38.50;;;;;;;;;;5032198;28;20099;-71
2022/12/13 09:28:00;;;;;;;75.03;38.25;;;;;;;;;;5048710;28;20053;-70
2022/12/13 09:30:27;;;;;;;68.00;35.70;;;;;;;;;;5047118;28;20059;-71
2022/12/13 09:32:53;;;;;;;70.22;38.28;;;;;;;;;;5048705;28;20044;-71
2022/12/13 09:35:19;;;;;;;78.00;39.58;;;;;;;;;;5043632;28;20085;-71
2022/12/13 09:37:46;;;;;;;71.43;38.60;;;;;;;;;;5048543;28;20515;-71
2022/12/13 09:40:18;;;;;;;79.90;41.03;;;;;;;;;;5037726;28;20044;-68
2022/12/13 09:42:46;;;;;;;77.50;39.92;;;;;;;;;;5048496;28;20407;-70
2022/12/13 09:45:13;;;;;;;71.57;39.30;;;;;;;;;;5020467;28;20049;-70
2022/12/13 09:47:41;;;;;;;77.75;40.38;;;;;;;;;;5046046;28;20049;-69
2022/12/13 09:50:15;;;;;;;85.40;40.30;;;;;;;;;;5047330;28;20045;-71
2022/12/13 09:52:41;;;;;;;73.55;39.97;;;;;;;;;;5045086;28;20045;-71
2022/12/13 09:55:28;;;;;;;80.05;41.75;;;;;;;;;;5039554;28;20055;-70
2022/12/13 09:57:54;;;;;;;78.35;40.58;;;;;;;;;;5044099;28;20045;-70
2022/12/13 10:00:22;;;;;;;73.32;39.67;;;;;;;;;;5046816;28;20045;-70
2022/12/13 10:02:56;;;;;;;84.03;41.72;;;;;;;;;;5043350;28;20064;-71
2022/12/13 10:05:34;;;;;;;80.05;41.65;;;;;;;;;;5037638;28;20056;-69
2022/12/13 10:08:04;;;;;;;83.13;41.75;;;;;;;;;;5041066;28;20053;-71
2022/12/13 10:10:30;;;;;;;83.10;42.13;;;;;;;;;;5038581;28;20041;-71
2022/12/13 10:13:08;;;;;;;77.90;41.38;;;;;;;;;;5045584;28;20111;-70
2022/12/13 10:15:36;;;;;;;80.93;41.67;;;;;;;;;;5042392;28;20045;-69
2022/12/13 10:18:03;;;;;;;85.43;43.10;;;;;;;;;;5041804;28;20044;-71
2022/12/13 10:20:29;;;;;;;73.72;40.10;;;;;;;;;;5024903;28;20522;-70
2022/12/13 10:22:55;;;;;;;80.18;42.38;;;;;;;;;;5026624;28;20091;-70
2022/12/13 10:25:40;;;;;;;84.18;42.70;;;;;;;;;;5043804;28;20443;-70
2022/12/13 10:28:06;;;;;;;75.30;41.75;;;;;;;;;;5040652;28;20052;-71
2022/12/13 10:30:39;;;;;;;80.25;42.22;;;;;;;;;;5058895;28;20098;-71
2022/12/13 10:33:05;;;;;;;71.78;40.42;;;;;;;;;;5030932;28;20048;-71
2022/12/13 10:35:38;;;;;;;82.07;43.75;;;;;;;;;;5045298;28;20515;-68
2022/12/13 10:38:08;;;;;;;76.20;40.95;;;;;;;;;;5044095;28;20484;-71
2022/12/13 10:40:36;;;;;;;79.22;42.60;;;;;;;;;;5043512;28;20044;-70
2022/12/13 10:43:05;;;;;;;79.63;42.28;;;;;;;;;;5038764;28;20076;-68
2022/12/13 10:45:31;;;;;;;73.43;41.50;;;;;;;;;;5036609;28;20398;-71
2022/12/13 10:47:57;;;;;;;75.18;41.97;;;;;;;;;;5032557;28;21530;-71
2022/12/13 10:50:28;;;;;;;85.80;44.10;;;;;;;;;;5036531;28;20053;-69
2022/12/13 10:52:55;;;;;;;78.03;43.80;;;;;;;;;;5020541;28;20088;-72
2022/12/13 10:55:29;;;;;;;83.30;43.65;;;;;;;;;;5032763;28;20068;-69
2022/12/13 10:58:00;;;;;;;76.68;41.08;;;;;;;;;;5036553;28;20492;-70
2022/12/13 11:00:45;;;;;;;80.22;42.97;;;;;;;;;;5048394;28;20141;-71
2022/12/13 11:03:13;;;;;;;76.90;42.22;;;;;;;;;;5035542;28;20094;-70
2022/12/13 11:05:39;;;;;;;75.43;43.33;;;;;;;;;;5017615;28;20049;-71
2022/12/13 11:08:13;;;;;;;77.38;42.30;;;;;;;;;;5036454;28;20140;-71
2022/12/13 11:10:39;;;;;;;74.90;44.35;;;;;;;;;;5041189;28;20703;-72
2022/12/13 11:13:06;;;;;;;73.30;41.33;;;;;;;;;;5040591;28;20744;-71
2022/12/13 11:15:33;;;;;;;75.45;42.30;;;;;;;;;;5046080;28;20094;-72
2022/12/13 11:18:01;;;;;;;79.90;41.60;;;;;;;;;;5046325;28;20045;-72
2022/12/13 11:20:33;;;;;;;79.03;44.13;;;;;;;;;;5046827;28;20051;-70
2022/12/13 11:23:01;;;;;;;74.78;41.95;;;;;;;;;;5046616;28;20040;-71
2022/12/13 11:25:35;;;;;;;72.15;41.92;;;;;;;;;;5045770;28;20041;-70
2022/12/13 11:28:20;;;;;;;75.20;42.75;;;;;;;;;;5045691;28;20072;-70
2022/12/13 11:31:01;;;;;;;73.22;42.25;;;;;;;;;;5043046;28;20444;-72
2022/12/13 11:33:32;;;;;;;80.35;42.92;;;;;;;;;;5047154;28;20052;-73
2022/12/13 11:36:14;;;;;;;75.93;43.83;;;;;;;;;;5044519;28;20045;-72
2022/12/13 11:38:49;;;;;;;75.88;43.00;;;;;;;;;;5048279;28;20040;-75
2022/12/13 11:41:19;;;;;;;68.72;42.17;;;;;;;;;;5030436;28;20123;-71
2022/12/13 11:43:52;;;;;;;70.63;40.13;;;;;;;;;;5047809;28;20991;-72
2022/12/13 11:46:37;;;;;;;66.45;39.63;;;;;;;;;;5046539;28;20041;-74
2022/12/13 11:49:08;;;;;;;62.95;37.70;;;;;;;;;;5051431;28;20041;-73
2022/12/13 11:51:40;;;;;;;61.63;37.00;;;;;;;;;;5048633;28;20136;-74
2022/12/13 11:54:10;;;;;;;63.63;36.73;;;;;;;;;;5051558;28;20055;-72
2022/12/13 11:56:38;;;;;;;61.47;36.70;;;;;;;;;;5047530;28;20311;-74
2022/12/13 11:59:17;;;;;;;56.85;35.22;;;;;;;;;;5045017;28;20072;-74
2022/12/13 12:01:49;;;;;;;55.65;35.08;;;;;;;;;;5043680;28;20064;-74
2022/12/13 12:04:34;;;;;;;56.80;35.50;;;;;;;;;;5042925;28;20466;-75
2022/12/13 12:07:04;;;;;;;52.40;33.85;;;;;;;;;;5035547;28;20072;-72
2022/12/13 12:09:31;;;;;;;54.97;34.50;;;;;;;;;;5037332;28;20041;-73
2022/12/13 12:12:03;;;;;;;58.58;35.53;;;;;;;;;;5037360;28;20047;-75
2022/12/13 12:14:29;;;;;;;57.72;36.10;;;;;;;;;;5026188;28;20183;-75
2022/12/13 12:16:58;;;;;;;52.38;33.80;;;;;;;;;;5034499;28;20045;-73
2022/12/13 12:19:27;;;;;;;53.58;34.45;;;;;;;;;;5039201;28;20041;-75
2022/12/13 12:21:56;;;;;;;51.92;32.92;;;;;;;;;;5048037;28;20128;-74
2022/12/13 12:24:31;;;;;;;50.70;31.30;;;;;;;;;;5048293;28;20091;-74
2022/12/13 12:27:16;;;;;;;50.30;31.80;;;;;;;;;;5043667;28;20049;-74
2022/12/13 12:29:52;;;;;;;48.53;29.67;;;;;;;;;;5048054;28;20044;-74
2022/12/13 12:32:28;;;;;;;48.30;31.00;;;;;;;;;;5043217;28;20048;-74
2022/12/13 12:35:01;;;;;;;49.35;31.27;;;;;;;;;;5037576;28;20053;-74
2022/12/13 12:37:39;;;;;;;46.97;30.58;;;;;;;;;;5045038;28;20041;-74
2022/12/13 12:40:19;;;;;;;43.20;28.38;;;;;;;;;;5046075;28;20044;-74
2022/12/13 12:42:51;;;;;;;45.75;29.77;;;;;;;;;;5037506;28;20128;-74
2022/12/13 12:45:26;;;;;;;48.97;31.02;;;;;;;;;;5044139;28;20087;-72
2022/12/13 12:48:08;;;;;;;45.95;30.73;;;;;;;;;;5042547;28;20115;-72
2022/12/13 12:50:42;;;;;;;43.22;29.25;;;;;;;;;;5044351;28;20399;-73
2022/12/13 12:53:22;;;;;;;44.80;28.52;;;;;;;;;;5038894;28;21392;-73
2022/12/13 12:55:55;;;;;;;46.85;29.88;;;;;;;;;;5037407;28;20103;-74
2022/12/13 12:58:21;;;;;;;42.35;28.10;;;;;;;;;;5037037;28;20045;-73
2022/12/13 13:01:00;;;;;;;39.38;26.25;;;;;;;;;;5037136;28;20838;-73
2022/12/13 13:03:27;;;;;;;37.05;25.05;;;;;;;;;;5019829;28;20431;-73
2022/12/13 13:05:56;;;;;;;35.67;24.60;;;;;;;;;;5034186;28;20114;-73
2022/12/13 13:08:29;;;;;;;39.45;25.33;;;;;;;;;;5036311;28;20139;-72
2022/12/13 13:10:56;;;;;;;42.40;26.58;;;;;;;;;;5040573;28;20064;-72
2022/12/13 13:13:32;;;;;;;39.25;26.85;;;;;;;;;;5039044;28;20049;-74
2022/12/13 13:15:58;;;;;;;39.40;25.35;;;;;;;;;;5022234;28;20045;-73
2022/12/13 13:18:46;;;;;;;37.90;24.88;;;;;;;;;;5040828;28;21701;-72
2022/12/13 13:21:26;;;;;;;37.20;25.45;;;;;;;;;;5041792;28;20132;-73
2022/12/13 13:24:01;;;;;;;41.53;26.45;;;;;;;;;;5042756;28;20045;-72
2022/12/13 13:26:28;;;;;;;33.90;25.20;;;;;;;;;;5024689;28;20053;-72
2022/12/13 13:28:55;;;;;;;36.63;25.95;;;;;;;;;;5025623;28;20056;-73
2022/12/13 13:31:21;;;;;;;39.78;26.17;;;;;;;;;;5041671;28;20373;-73
2022/12/13 13:33:49;;;;;;;39.50;25.80;;;;;;;;;;5042197;28;20102;-72
2022/12/13 13:36:45;;;;;;;37.50;25.98;;;;;;;;;;5042113;28;20053;-73
2022/12/13 13:39:15;;;;;;;42.42;26.35;;;;;;;;;;5024806;28;20126;-73
2022/12/13 13:41:54;;;;;;;38.58;26.05;;;;;;;;;;5043216;28;20045;-72
2022/12/13 13:44:33;;;;;;;37.00;26.63;;;;;;;;;;5044218;28;20148;-71
2022/12/13 13:47:13;;;;;;;39.05;26.58;;;;;;;;;;5042725;28;20040;-74
2022/12/13 13:49:46;;;;;;;40.72;25.77;;;;;;;;;;5041278;28;20041;-71
2022/12/13 13:52:19;;;;;;;39.13;27.55;;;;;;;;;;5038628;28;20041;-72
2022/12/13 13:54:45;;;;;;;40.10;27.25;;;;;;;;;;5038948;28;20907;-70
2022/12/13 13:57:17;;;;;;;39.95;26.38;;;;;;;;;;5042410;28;20043;-71
2022/12/13 14:00:02;;;;;;;41.60;27.75;;;;;;;;;;5041387;28;20048;-71
2022/12/13 14:02:28;;;;;;;42.70;28.48;;;;;;;;;;5040035;28;20492;-72
2022/12/13 14:05:00;;;;;;;40.50;27.58;;;;;;;;;;5038174;28;20105;-73
2022/12/13 14:07:29;;;;;;;38.83;26.95;;;;;;;;;;5042928;28;20041;-73
2022/12/13 14:10:14;;;;;;;41.90;28.25;;;;;;;;;;5041839;28;20434;-72
2022/12/13 14:12:59;;;;;;;45.70;29.52;;;;;;;;;;5040361;28;20053;-73
2022/12/13 14:15:25;;;;;;;43.38;29.02;;;;;;;;;;5036354;28;20037;-73
2022/12/13 14:17:51;;;;;;;40.75;28.50;;;;;;;;;;5040589;28;20048;-71
2022/12/13 14:20:28;;;;;;;43.47;27.83;;;;;;;;;;5043086;28;20080;-72
2022/12/13 14:22:59;;;;;;;42.80;27.48;;;;;;;;;;5038008;28;20053;-72
2022/12/13 14:25:40;;;;;;;42.95;29.83;;;;;;;;;;5033610;28;20082;-73
2022/12/13 14:28:23;;;;;;;38.95;28.05;;;;;;;;;;5035102;28;20077;-72
2022/12/13 14:30:49;;;;;;;43.80;28.80;;;;;;;;;;5035519;28;20411;-73
2022/12/13 14:33:19;;;;;;;48.33;28.75;;;;;;;;;;5016793;28;20406;-72